sensor_id;sensor_type;location;lat;lon;timestamp;temperature;humidity
8043;DHT22;4064;48.132;11.366;2024-03-02T00:00:19;5.20;99.90
8043;DHT22;4064;48.132;11.366;2024-03-02T00:02:48;5.20;99.90
8043;DHT22;4064;48.132;11.366;2024-03-02T00:05:19;5.20;99.90
8043;DHT22;4064;48.132;11.366;2024-03-02T00:07:48;5.20;99.90
8043;DHT22;4064;48.132;11.366;2024-03-02T00:10:21;5.20;99.90
8043;DHT22;4064;48.132;11.366;2024-03-02T00:12:51;5.20;99.90
8043;DHT22;4064;48.132;11.366;2024-03-02T00:18:01;5.20;99.90
8043;DHT22;4064;48.132;11.366;2024-03-02T00:20:27;5.20;99.90
8043;DHT22;4064;48.132;11.366;2024-03-02T00:23:03;5.20;99.90
8043;DHT22;4064;48.132;11.366;2024-03-02T00:25:46;5.20;99.90
8043;DHT22;4064;48.132;11.366;2024-03-02T00:28:25;5.20;99.90
8043;DHT22;4064;48.132;11.366;2024-03-02T00:31:11;5.20;99.90
8043;DHT22;4064;48.132;11.366;2024-03-02T00:33:47;5.20;99.90
8043;DHT22;4064;48.132;11.366;2024-03-02T00:36:14;5.20;99.90
8043;DHT22;4064;48.132;11.366;2024-03-02T00:38:48;5.10;99.90
8043;DHT22;4064;48.132;11.366;2024-03-02T00:41:21;5.10;99.90
8043;DHT22;4064;48.132;11.366;2024-03-02T00:44:05;5.10;99.90
8043;DHT22;4064;48.132;11.366;2024-03-02T00:46:39;5.10;99.90
8043;DHT22;4064;48.132;11.366;2024-03-02T00:49:11;5.10;99.90
8043;DHT22;4064;48.132;11.366;2024-03-02T00:51:39;5.10;99.90
8043;DHT22;4064;48.132;11.366;2024-03-02T00:54:07;5.10;99.90
8043;DHT22;4064;48.132;11.366;2024-03-02T00:56:33;5.00;99.90
8043;DHT22;4064;48.132;11.366;2024-03-02T00:59:00;5.00;99.90
8043;DHT22;4064;48.132;11.366;2024-03-02T01:01:26;4.90;99.90
8043;DHT22;4064;48.132;11.366;2024-03-02T01:03:52;5.00;99.90
8043;DHT22;4064;48.132;11.366;2024-03-02T01:06:18;4.90;99.90
8043;DHT22;4064;48.132;11.366;2024-03-02T01:08:44;4.90;99.90
8043;DHT22;4064;48.132;11.366;2024-03-02T01:11:10;4.80;99.90
8043;DHT22;4064;48.132;11.366;2024-03-02T01:13:36;4.90;99.90
8043;DHT22;4064;48.132;11.366;2024-03-02T01:16:02;4.90;99.90
8043;DHT22;4064;48.132;11.366;2024-03-02T01:18:28;4.90;99.90
8043;DHT22;4064;48.132;11.366;2024-03-02T01:20:54;4.90;99.90
8043;DHT22;4064;48.132;11.366;2024-03-02T01:23:23;4.90;99.90
8043;DHT22;4064;48.132;11.366;2024-03-02T01:25:49;4.80;99.90
8043;DHT22;4064;48.132;11.366;2024-03-02T01:28:16;4.90;99.90
8043;DHT22;4064;48.132;11.366;2024-03-02T01:30:42;4.90;99.90
8043;DHT22;4064;48.132;11.366;2024-03-02T01:33:08;4.90;99.90
8043;DHT22;4064;48.132;11.366;2024-03-02T01:35:33;4.90;99.90
8043;DHT22;4064;48.132;11.366;2024-03-02T01:38:00;4.80;99.90
8043;DHT22;4064;48.132;11.366;2024-03-02T01:40:27;4.90;99.90
8043;DHT22;4064;48.132;11.366;2024-03-02T01:42:54;4.90;99.90
8043;DHT22;4064;48.132;11.366;2024-03-02T01:45:20;4.80;99.90
8043;DHT22;4064;48.132;11.366;2024-03-02T01:47:46;4.70;99.90
8043;DHT22;4064;48.132;11.366;2024-03-02T01:50:12;4.80;99.90
8043;DHT22;4064;48.132;11.366;2024-03-02T01:52:39;4.80;99.90
8043;DHT22;4064;48.132;11.366;2024-03-02T01:55:05;4.90;99.90
8043;DHT22;4064;48.132;11.366;2024-03-02T01:57:32;4.80;99.90
8043;DHT22;4064;48.132;11.366;2024-03-02T01:59:58;4.80;99.90
8043;DHT22;4064;48.132;11.366;2024-03-02T02:02:23;4.80;99.90
8043;DHT22;4064;48.132;11.366;2024-03-02T02:04:49;4.80;99.90
8043;DHT22;4064;48.132;11.366;2024-03-02T02:07:15;4.90;99.90
8043;DHT22;4064;48.132;11.366;2024-03-02T02:09:43;4.90;99.90
8043;DHT22;4064;48.132;11.366;2024-03-02T02:12:09;4.90;99.90
8043;DHT22;4064;48.132;11.366;2024-03-02T02:14:36;4.80;99.90
8043;DHT22;4064;48.132;11.366;2024-03-02T02:17:01;4.80;99.90
8043;DHT22;4064;48.132;11.366;2024-03-02T02:19:27;4.90;99.90
8043;DHT22;4064;48.132;11.366;2024-03-02T02:21:53;4.90;99.90
8043;DHT22;4064;48.132;11.366;2024-03-02T02:24:18;4.90;99.90
8043;DHT22;4064;48.132;11.366;2024-03-02T02:26:44;4.90;99.90
8043;DHT22;4064;48.132;11.366;2024-03-02T02:29:10;5.00;99.90
8043;DHT22;4064;48.132;11.366;2024-03-02T02:31:42;5.00;99.90
8043;DHT22;4064;48.132;11.366;2024-03-02T02:34:07;4.90;99.90
8043;DHT22;4064;48.132;11.366;2024-03-02T02:36:37;4.90;99.90
8043;DHT22;4064;48.132;11.366;2024-03-02T02:39:04;4.90;99.90
8043;DHT22;4064;48.132;11.366;2024-03-02T02:41:30;4.90;99.90
8043;DHT22;4064;48.132;11.366;2024-03-02T02:43:56;4.90;99.90
8043;DHT22;4064;48.132;11.366;2024-03-02T02:46:22;4.80;99.90
8043;DHT22;4064;48.132;11.366;2024-03-02T02:48:47;4.80;99.90
8043;DHT22;4064;48.132;11.366;2024-03-02T02:51:13;4.80;99.90
8043;DHT22;4064;48.132;11.366;2024-03-02T02:53:39;4.80;99.90
8043;DHT22;4064;48.132;11.366;2024-03-02T02:56:08;4.70;99.90
8043;DHT22;4064;48.132;11.366;2024-03-02T02:58:33;4.70;99.90
8043;DHT22;4064;48.132;11.366;2024-03-02T03:00:59;4.70;99.90
8043;DHT22;4064;48.132;11.366;2024-03-02T03:03:24;4.70;99.90
8043;DHT22;4064;48.132;11.366;2024-03-02T03:05:50;4.70;99.90
8043;DHT22;4064;48.132;11.366;2024-03-02T03:08:16;4.80;99.90
8043;DHT22;4064;48.132;11.366;2024-03-02T03:10:42;4.80;99.90
8043;DHT22;4064;48.132;11.366;2024-03-02T03:13:08;4.80;99.90
8043;DHT22;4064;48.132;11.366;2024-03-02T03:15:37;4.90;99.90
8043;DHT22;4064;48.132;11.366;2024-03-02T03:18:04;4.90;99.90
8043;DHT22;4064;48.132;11.366;2024-03-02T03:20:30;4.80;99.90
8043;DHT22;4064;48.132;11.366;2024-03-02T03:22:56;4.90;99.90
8043;DHT22;4064;48.132;11.366;2024-03-02T03:25:22;4.90;99.90
8043;DHT22;4064;48.132;11.366;2024-03-02T03:27:50;4.90;99.90
8043;DHT22;4064;48.132;11.366;2024-03-02T03:30:18;4.90;99.90
8043;DHT22;4064;48.132;11.366;2024-03-02T03:32:44;4.80;99.90
8043;DHT22;4064;48.132;11.366;2024-03-02T03:35:09;4.80;99.90
8043;DHT22;4064;48.132;11.366;2024-03-02T03:37:35;4.90;99.90
8043;DHT22;4064;48.132;11.366;2024-03-02T03:40:02;4.90;99.90
8043;DHT22;4064;48.132;11.366;2024-03-02T03:42:28;4.80;99.90
8043;DHT22;4064;48.132;11.366;2024-03-02T03:44:54;4.90;99.90
8043;DHT22;4064;48.132;11.366;2024-03-02T03:47:20;4.90;99.90
8043;DHT22;4064;48.132;11.366;2024-03-02T03:49:46;4.90;99.90
8043;DHT22;4064;48.132;11.366;2024-03-02T03:52:11;5.00;99.90
8043;DHT22;4064;48.132;11.366;2024-03-02T03:54:37;4.90;99.90
8043;DHT22;4064;48.132;11.366;2024-03-02T03:57:04;4.90;99.90
8043;DHT22;4064;48.132;11.366;2024-03-02T03:59:30;4.90;99.90
8043;DHT22;4064;48.132;11.366;2024-03-02T04:01:56;4.90;99.90
8043;DHT22;4064;48.132;11.366;2024-03-02T04:04:21;4.90;99.90
8043;DHT22;4064;48.132;11.366;2024-03-02T04:06:47;4.90;99.90
8043;DHT22;4064;48.132;11.366;2024-03-02T04:09:13;4.90;99.90
8043;DHT22;4064;48.132;11.366;2024-03-02T04:11:39;5.00;99.90
8043;DHT22;4064;48.132;11.366;2024-03-02T04:14:05;4.90;99.90
8043;DHT22;4064;48.132;11.366;2024-03-02T04:16:31;4.90;99.90
8043;DHT22;4064;48.132;11.366;2024-03-02T04:18:57;5.00;99.90
8043;DHT22;4064;48.132;11.366;2024-03-02T04:21:23;5.00;99.90
8043;DHT22;4064;48.132;11.366;2024-03-02T04:23:48;5.00;99.90
8043;DHT22;4064;48.132;11.366;2024-03-02T04:26:14;5.00;99.90
8043;DHT22;4064;48.132;11.366;2024-03-02T04:28:45;5.00;99.90
8043;DHT22;4064;48.132;11.366;2024-03-02T04:31:10;5.10;99.90
8043;DHT22;4064;48.132;11.366;2024-03-02T04:33:36;5.00;99.90
8043;DHT22;4064;48.132;11.366;2024-03-02T04:36:02;5.00;99.90
8043;DHT22;4064;48.132;11.366;2024-03-02T04:38:27;5.00;99.90
8043;DHT22;4064;48.132;11.366;2024-03-02T04:40:54;5.00;99.90
8043;DHT22;4064;48.132;11.366;2024-03-02T04:43:19;5.00;99.90
8043;DHT22;4064;48.132;11.366;2024-03-02T04:45:45;5.00;99.90
8043;DHT22;4064;48.132;11.366;2024-03-02T04:48:11;5.00;99.90
8043;DHT22;4064;48.132;11.366;2024-03-02T04:50:37;5.00;99.90
8043;DHT22;4064;48.132;11.366;2024-03-02T04:53:02;5.00;99.90
8043;DHT22;4064;48.132;11.366;2024-03-02T04:55:28;5.00;99.90
8043;DHT22;4064;48.132;11.366;2024-03-02T04:57:54;4.90;99.90
8043;DHT22;4064;48.132;11.366;2024-03-02T05:00:22;4.90;99.90
8043;DHT22;4064;48.132;11.366;2024-03-02T05:02:48;5.00;99.90
8043;DHT22;4064;48.132;11.366;2024-03-02T05:05:13;5.00;99.90
8043;DHT22;4064;48.132;11.366;2024-03-02T05:07:42;5.00;99.90
8043;DHT22;4064;48.132;11.366;2024-03-02T05:10:09;5.00;99.90
8043;DHT22;4064;48.132;11.366;2024-03-02T05:12:35;5.00;99.90
8043;DHT22;4064;48.132;11.366;2024-03-02T05:15:11;5.00;99.90
8043;DHT22;4064;48.132;11.366;2024-03-02T05:17:37;5.00;99.90
8043;DHT22;4064;48.132;11.366;2024-03-02T05:20:04;5.00;99.90
8043;DHT22;4064;48.132;11.366;2024-03-02T05:22:30;5.00;99.90
8043;DHT22;4064;48.132;11.366;2024-03-02T05:24:56;4.90;99.90
8043;DHT22;4064;48.132;11.366;2024-03-02T05:27:22;4.90;99.90
8043;DHT22;4064;48.132;11.366;2024-03-02T05:29:48;5.00;99.90
8043;DHT22;4064;48.132;11.366;2024-03-02T05:32:13;4.90;99.90
8043;DHT22;4064;48.132;11.366;2024-03-02T05:34:39;4.80;99.90
8043;DHT22;4064;48.132;11.366;2024-03-02T05:37:05;4.80;99.90
8043;DHT22;4064;48.132;11.366;2024-03-02T05:39:30;4.90;99.90
8043;DHT22;4064;48.132;11.366;2024-03-02T05:41:56;4.90;99.90
8043;DHT22;4064;48.132;11.366;2024-03-02T05:44:21;4.90;99.90
8043;DHT22;4064;48.132;11.366;2024-03-02T05:46:48;4.80;99.90
8043;DHT22;4064;48.132;11.366;2024-03-02T05:49:14;4.90;99.90
8043;DHT22;4064;48.132;11.366;2024-03-02T05:51:39;4.80;99.90
8043;DHT22;4064;48.132;11.366;2024-03-02T05:54:05;4.80;99.90
8043;DHT22;4064;48.132;11.366;2024-03-02T05:56:31;4.90;99.90
8043;DHT22;4064;48.132;11.366;2024-03-02T05:58:57;4.90;99.90
8043;DHT22;4064;48.132;11.366;2024-03-02T06:01:33;4.90;99.90
8043;DHT22;4064;48.132;11.366;2024-03-02T06:03:59;4.80;99.90
8043;DHT22;4064;48.132;11.366;2024-03-02T06:06:25;4.80;99.90
8043;DHT22;4064;48.132;11.366;2024-03-02T06:08:51;4.80;99.90
8043;DHT22;4064;48.132;11.366;2024-03-02T06:11:17;4.80;99.90
8043;DHT22;4064;48.132;11.366;2024-03-02T06:13:44;4.80;99.90
8043;DHT22;4064;48.132;11.366;2024-03-02T06:16:10;4.70;99.90
8043;DHT22;4064;48.132;11.366;2024-03-02T06:18:36;4.70;99.90
8043;DHT22;4064;48.132;11.366;2024-03-02T06:21:02;4.60;99.90
8043;DHT22;4064;48.132;11.366;2024-03-02T06:23:28;4.60;99.90
8043;DHT22;4064;48.132;11.366;2024-03-02T06:25:54;4.60;99.90
8043;DHT22;4064;48.132;11.366;2024-03-02T06:28:19;4.70;99.90
8043;DHT22;4064;48.132;11.366;2024-03-02T06:30:46;4.70;99.90
8043;DHT22;4064;48.132;11.366;2024-03-02T06:33:12;4.60;99.90
8043;DHT22;4064;48.132;11.366;2024-03-02T06:35:37;4.70;99.90
8043;DHT22;4064;48.132;11.366;2024-03-02T06:38:04;4.70;99.90
8043;DHT22;4064;48.132;11.366;2024-03-02T06:40:30;4.80;99.90
8043;DHT22;4064;48.132;11.366;2024-03-02T06:42:55;4.70;99.90
8043;DHT22;4064;48.132;11.366;2024-03-02T06:45:21;4.70;99.90
8043;DHT22;4064;48.132;11.366;2024-03-02T06:47:47;4.70;99.90
8043;DHT22;4064;48.132;11.366;2024-03-02T06:50:12;4.70;99.90
8043;DHT22;4064;48.132;11.366;2024-03-02T06:52:39;4.80;99.90
8043;DHT22;4064;48.132;11.366;2024-03-02T06:55:05;4.80;99.90
8043;DHT22;4064;48.132;11.366;2024-03-02T06:57:31;4.80;99.90
8043;DHT22;4064;48.132;11.366;2024-03-02T06:59:56;4.90;99.90
8043;DHT22;4064;48.132;11.366;2024-03-02T07:02:24;4.90;99.90
8043;DHT22;4064;48.132;11.366;2024-03-02T07:04:53;5.00;99.90
8043;DHT22;4064;48.132;11.366;2024-03-02T07:07:18;5.20;99.90
8043;DHT22;4064;48.132;11.366;2024-03-02T07:18:17;6.50;99.90
8043;DHT22;4064;48.132;11.366;2024-03-02T07:20:42;7.00;99.90
8043;DHT22;4064;48.132;11.366;2024-03-02T07:23:08;7.60;99.90
8043;DHT22;4064;48.132;11.366;2024-03-02T07:25:34;8.70;99.90
8043;DHT22;4064;48.132;11.366;2024-03-02T07:28:00;9.00;99.90
8043;DHT22;4064;48.132;11.366;2024-03-02T07:30:26;9.40;99.90
8043;DHT22;4064;48.132;11.366;2024-03-02T07:32:52;9.60;99.90
8043;DHT22;4064;48.132;11.366;2024-03-02T07:35:17;9.70;99.90
8043;DHT22;4064;48.132;11.366;2024-03-02T07:37:43;10.50;99.90
8043;DHT22;4064;48.132;11.366;2024-03-02T07:40:10;11.40;99.90
8043;DHT22;4064;48.132;11.366;2024-03-02T07:42:40;12.20;99.90
8043;DHT22;4064;48.132;11.366;2024-03-02T07:45:06;12.90;99.90
8043;DHT22;4064;48.132;11.366;2024-03-02T07:47:35;13.50;99.90
8043;DHT22;4064;48.132;11.366;2024-03-02T07:50:01;14.20;99.90
8043;DHT22;4064;48.132;11.366;2024-03-02T07:52:28;13.90;99.90
8043;DHT22;4064;48.132;11.366;2024-03-02T07:54:54;14.50;99.90
8043;DHT22;4064;48.132;11.366;2024-03-02T07:57:20;14.00;99.90
8043;DHT22;4064;48.132;11.366;2024-03-02T07:59:46;13.90;99.90
8043;DHT22;4064;48.132;11.366;2024-03-02T08:02:12;13.50;99.90
8043;DHT22;4064;48.132;11.366;2024-03-02T08:04:38;11.90;99.90
8043;DHT22;4064;48.132;11.366;2024-03-02T08:07:04;11.20;99.90
8043;DHT22;4064;48.132;11.366;2024-03-02T08:09:30;11.70;99.90
8043;DHT22;4064;48.132;11.366;2024-03-02T08:11:55;12.70;99.90
8043;DHT22;4064;48.132;11.366;2024-03-02T08:14:23;12.60;99.90
8043;DHT22;4064;48.132;11.366;2024-03-02T08:16:49;12.50;99.90
8043;DHT22;4064;48.132;11.366;2024-03-02T08:19:14;12.00;99.90
8043;DHT22;4064;48.132;11.366;2024-03-02T08:21:40;11.60;99.90
8043;DHT22;4064;48.132;11.366;2024-03-02T08:24:06;12.60;99.90
8043;DHT22;4064;48.132;11.366;2024-03-02T08:26:32;13.40;99.90
8043;DHT22;4064;48.132;11.366;2024-03-02T08:28:59;14.20;99.90
8043;DHT22;4064;48.132;11.366;2024-03-02T08:31:24;15.20;99.90
8043;DHT22;4064;48.132;11.366;2024-03-02T08:33:50;15.70;99.90
8043;DHT22;4064;48.132;11.366;2024-03-02T08:36:16;15.20;99.90
8043;DHT22;4064;48.132;11.366;2024-03-02T08:38:41;15.00;99.90
8043;DHT22;4064;48.132;11.366;2024-03-02T08:41:07;14.70;99.90
8043;DHT22;4064;48.132;11.366;2024-03-02T08:43:33;13.90;99.90
8043;DHT22;4064;48.132;11.366;2024-03-02T08:45:59;14.20;99.90
8043;DHT22;4064;48.132;11.366;2024-03-02T08:48:25;14.20;99.90
8043;DHT22;4064;48.132;11.366;2024-03-02T08:50:51;14.50;99.90
8043;DHT22;4064;48.132;11.366;2024-03-02T08:53:16;15.00;99.90
8043;DHT22;4064;48.132;11.366;2024-03-02T08:55:47;15.40;99.90
8043;DHT22;4064;48.132;11.366;2024-03-02T08:58:13;16.10;99.90
8043;DHT22;4064;48.132;11.366;2024-03-02T09:00:38;15.80;99.90
8043;DHT22;4064;48.132;11.366;2024-03-02T09:03:04;15.50;99.90
8043;DHT22;4064;48.132;11.366;2024-03-02T09:05:30;14.80;99.90
8043;DHT22;4064;48.132;11.366;2024-03-02T09:07:56;14.10;99.90
8043;DHT22;4064;48.132;11.366;2024-03-02T09:10:21;14.50;99.90
8043;DHT22;4064;48.132;11.366;2024-03-02T09:12:47;14.40;99.90
8043;DHT22;4064;48.132;11.366;2024-03-02T09:15:13;15.00;99.90
8043;DHT22;4064;48.132;11.366;2024-03-02T09:17:38;15.60;99.90
8043;DHT22;4064;48.132;11.366;2024-03-02T09:20:05;15.00;99.90
8043;DHT22;4064;48.132;11.366;2024-03-02T09:22:31;14.70;99.90
8043;DHT22;4064;48.132;11.366;2024-03-02T09:24:57;14.40;99.90
8043;DHT22;4064;48.132;11.366;2024-03-02T09:27:23;13.50;99.90
8043;DHT22;4064;48.132;11.366;2024-03-02T09:29:49;13.30;99.90
8043;DHT22;4064;48.132;11.366;2024-03-02T09:32:15;12.90;99.90
8043;DHT22;4064;48.132;11.366;2024-03-02T09:34:41;12.60;99.90
8043;DHT22;4064;48.132;11.366;2024-03-02T09:37:07;12.20;99.90
8043;DHT22;4064;48.132;11.366;2024-03-02T09:39:33;12.20;99.90
8043;DHT22;4064;48.132;11.366;2024-03-02T09:41:59;12.10;99.90
8043;DHT22;4064;48.132;11.366;2024-03-02T09:44:26;12.40;99.90
8043;DHT22;4064;48.132;11.366;2024-03-02T09:46:52;12.60;99.90
8043;DHT22;4064;48.132;11.366;2024-03-02T09:49:18;12.70;99.90
8043;DHT22;4064;48.132;11.366;2024-03-02T09:51:49;13.20;99.90
8043;DHT22;4064;48.132;11.366;2024-03-02T09:54:18;13.40;99.90
8043;DHT22;4064;48.132;11.366;2024-03-02T09:56:46;13.60;99.90
8043;DHT22;4064;48.132;11.366;2024-03-02T09:59:12;14.00;99.90
8043;DHT22;4064;48.132;11.366;2024-03-02T10:01:58;14.40;99.90
8043;DHT22;4064;48.132;11.366;2024-03-02T10:04:28;14.80;99.90
8043;DHT22;4064;48.132;11.366;2024-03-02T10:07:15;14.90;99.90
8043;DHT22;4064;48.132;11.366;2024-03-02T10:09:42;14.80;99.90
8043;DHT22;4064;48.132;11.366;2024-03-02T10:12:09;14.80;99.90
8043;DHT22;4064;48.132;11.366;2024-03-02T10:14:35;14.30;99.90
8043;DHT22;4064;48.132;11.366;2024-03-02T10:17:08;14.50;99.90
8043;DHT22;4064;48.132;11.366;2024-03-02T10:19:35;14.40;99.90
8043;DHT22;4064;48.132;11.366;2024-03-02T10:22:06;13.80;99.90
8043;DHT22;4064;48.132;11.366;2024-03-02T10:24:42;13.70;99.90
8043;DHT22;4064;48.132;11.366;2024-03-02T10:27:16;13.60;99.90
8043;DHT22;4064;48.132;11.366;2024-03-02T10:29:45;14.30;99.90
8043;DHT22;4064;48.132;11.366;2024-03-02T10:32:11;14.20;99.90
8043;DHT22;4064;48.132;11.366;2024-03-02T10:34:39;14.00;99.90
8043;DHT22;4064;48.132;11.366;2024-03-02T10:37:05;13.80;99.90
8043;DHT22;4064;48.132;11.366;2024-03-02T10:39:34;13.80;99.90
8043;DHT22;4064;48.132;11.366;2024-03-02T10:42:06;13.30;99.90
8043;DHT22;4064;48.132;11.366;2024-03-02T10:44:32;13.20;99.90
8043;DHT22;4064;48.132;11.366;2024-03-02T10:47:03;13.20;99.90
8043;DHT22;4064;48.132;11.366;2024-03-02T10:49:30;13.30;99.90
8043;DHT22;4064;48.132;11.366;2024-03-02T10:52:00;14.10;99.90
8043;DHT22;4064;48.132;11.366;2024-03-02T10:54:26;14.10;99.90
8043;DHT22;4064;48.132;11.366;2024-03-02T10:56:56;13.80;99.90
8043;DHT22;4064;48.132;11.366;2024-03-02T10:59:33;14.00;99.90
8043;DHT22;4064;48.132;11.366;2024-03-02T11:02:01;14.30;99.90
8043;DHT22;4064;48.132;11.366;2024-03-02T11:04:28;14.30;99.90
8043;DHT22;4064;48.132;11.366;2024-03-02T11:07:06;13.80;99.90
8043;DHT22;4064;48.132;11.366;2024-03-02T11:09:34;14.00;99.90
8043;DHT22;4064;48.132;11.366;2024-03-02T11:12:12;14.20;99.90
8043;DHT22;4064;48.132;11.366;2024-03-02T11:14:41;14.20;99.90
8043;DHT22;4064;48.132;11.366;2024-03-02T11:17:11;14.00;99.90
8043;DHT22;4064;48.132;11.366;2024-03-02T11:19:40;14.00;99.90
8043;DHT22;4064;48.132;11.366;2024-03-02T11:22:06;14.50;99.90
8043;DHT22;4064;48.132;11.366;2024-03-02T11:24:33;14.50;99.90
8043;DHT22;4064;48.132;11.366;2024-03-02T11:27:03;14.50;99.90
8043;DHT22;4064;48.132;11.366;2024-03-02T11:32:03;14.50;99.90
8043;DHT22;4064;48.132;11.366;2024-03-02T11:34:36;14.70;99.90
8043;DHT22;4064;48.132;11.366;2024-03-02T11:37:02;15.20;99.90
8043;DHT22;4064;48.132;11.366;2024-03-02T11:39:29;14.70;99.90
8043;DHT22;4064;48.132;11.366;2024-03-02T11:41:56;14.50;99.90
8043;DHT22;4064;48.132;11.366;2024-03-02T11:44:21;14.50;99.90
8043;DHT22;4064;48.132;11.366;2024-03-02T11:46:59;14.10;99.90
8043;DHT22;4064;48.132;11.366;2024-03-02T11:49:45;14.40;99.90
8043;DHT22;4064;48.132;11.366;2024-03-02T11:52:13;14.70;99.90
8043;DHT22;4064;48.132;11.366;2024-03-02T11:54:40;15.00;99.90
8043;DHT22;4064;48.132;11.366;2024-03-02T11:57:07;15.30;99.90
8043;DHT22;4064;48.132;11.366;2024-03-02T11:59:33;15.20;99.90
8043;DHT22;4064;48.132;11.366;2024-03-02T12:01:59;15.00;99.90
8043;DHT22;4064;48.132;11.366;2024-03-02T12:04:26;15.40;99.90
8043;DHT22;4064;48.132;11.366;2024-03-02T12:07:01;15.30;99.90
8043;DHT22;4064;48.132;11.366;2024-03-02T12:09:28;15.10;99.90
8043;DHT22;4064;48.132;11.366;2024-03-02T12:12:09;15.00;99.90
8043;DHT22;4064;48.132;11.366;2024-03-02T12:14:39;15.00;99.90
8043;DHT22;4064;48.132;11.366;2024-03-02T12:17:05;15.40;99.90
8043;DHT22;4064;48.132;11.366;2024-03-02T12:19:32;15.40;99.90
8043;DHT22;4064;48.132;11.366;2024-03-02T12:21:58;15.60;99.90
8043;DHT22;4064;48.132;11.366;2024-03-02T12:24:26;15.50;99.90
8043;DHT22;4064;48.132;11.366;2024-03-02T12:26:53;16.00;99.90
8043;DHT22;4064;48.132;11.366;2024-03-02T12:29:22;16.10;99.90
8043;DHT22;4064;48.132;11.366;2024-03-02T12:31:48;15.80;99.90
8043;DHT22;4064;48.132;11.366;2024-03-02T12:34:15;16.30;99.90
8043;DHT22;4064;48.132;11.366;2024-03-02T12:36:41;16.40;99.90
8043;DHT22;4064;48.132;11.366;2024-03-02T12:39:10;16.40;99.90
8043;DHT22;4064;48.132;11.366;2024-03-02T12:41:40;16.40;99.90
8043;DHT22;4064;48.132;11.366;2024-03-02T12:44:06;16.60;99.90
8043;DHT22;4064;48.132;11.366;2024-03-02T12:46:32;17.10;99.90
8043;DHT22;4064;48.132;11.366;2024-03-02T12:49:04;16.60;99.90
8043;DHT22;4064;48.132;11.366;2024-03-02T12:51:32;16.90;99.90
8043;DHT22;4064;48.132;11.366;2024-03-02T12:53:58;16.60;99.90
8043;DHT22;4064;48.132;11.366;2024-03-02T12:56:27;16.70;99.90
8043;DHT22;4064;48.132;11.366;2024-03-02T12:58:54;16.80;99.90
8043;DHT22;4064;48.132;11.366;2024-03-02T13:01:20;16.70;99.90
8043;DHT22;4064;48.132;11.366;2024-03-02T13:03:48;17.10;99.90
8043;DHT22;4064;48.132;11.366;2024-03-02T13:06:16;16.30;99.90
8043;DHT22;4064;48.132;11.366;2024-03-02T13:08:42;16.30;99.90
8043;DHT22;4064;48.132;11.366;2024-03-02T13:11:08;16.70;99.90
8043;DHT22;4064;48.132;11.366;2024-03-02T13:13:34;16.70;99.90
8043;DHT22;4064;48.132;11.366;2024-03-02T13:16:00;16.90;99.90
8043;DHT22;4064;48.132;11.366;2024-03-02T13:18:26;16.60;99.90
8043;DHT22;4064;48.132;11.366;2024-03-02T13:20:52;16.50;99.90
8043;DHT22;4064;48.132;11.366;2024-03-02T13:23:18;17.00;99.90
8043;DHT22;4064;48.132;11.366;2024-03-02T13:25:45;16.90;99.90
8043;DHT22;4064;48.132;11.366;2024-03-02T13:28:12;17.20;99.90
8043;DHT22;4064;48.132;11.366;2024-03-02T13:30:38;17.40;99.90
8043;DHT22;4064;48.132;11.366;2024-03-02T13:33:04;16.90;99.90
8043;DHT22;4064;48.132;11.366;2024-03-02T13:35:30;16.90;99.90
8043;DHT22;4064;48.132;11.366;2024-03-02T13:37:55;16.30;99.90
8043;DHT22;4064;48.132;11.366;2024-03-02T13:40:21;16.60;99.90
8043;DHT22;4064;48.132;11.366;2024-03-02T13:42:49;17.00;99.90
8043;DHT22;4064;48.132;11.366;2024-03-02T13:45:18;17.00;99.90
8043;DHT22;4064;48.132;11.366;2024-03-02T13:47:44;17.20;99.90
8043;DHT22;4064;48.132;11.366;2024-03-02T13:50:09;16.50;99.90
8043;DHT22;4064;48.132;11.366;2024-03-02T13:52:35;16.30;99.90
8043;DHT22;4064;48.132;11.366;2024-03-02T13:55:01;15.90;99.90
8043;DHT22;4064;48.132;11.366;2024-03-02T13:57:27;15.40;99.90
8043;DHT22;4064;48.132;11.366;2024-03-02T13:59:53;15.30;99.90
8043;DHT22;4064;48.132;11.366;2024-03-02T14:02:20;15.30;99.90
8043;DHT22;4064;48.132;11.366;2024-03-02T14:04:46;15.50;99.90
8043;DHT22;4064;48.132;11.366;2024-03-02T14:07:13;15.20;99.90
8043;DHT22;4064;48.132;11.366;2024-03-02T14:09:39;15.00;99.90
8043;DHT22;4064;48.132;11.366;2024-03-02T14:12:05;15.40;99.90
8043;DHT22;4064;48.132;11.366;2024-03-02T14:14:32;14.80;99.90
8043;DHT22;4064;48.132;11.366;2024-03-02T14:16:58;15.10;99.90
8043;DHT22;4064;48.132;11.366;2024-03-02T14:19:31;15.50;99.90
8043;DHT22;4064;48.132;11.366;2024-03-02T14:21:57;15.50;99.90
8043;DHT22;4064;48.132;11.366;2024-03-02T14:24:23;15.90;99.90
8043;DHT22;4064;48.132;11.366;2024-03-02T14:26:51;16.20;99.90
8043;DHT22;4064;48.132;11.366;2024-03-02T14:29:18;15.90;99.90
8043;DHT22;4064;48.132;11.366;2024-03-02T14:31:43;15.80;99.90
8043;DHT22;4064;48.132;11.366;2024-03-02T14:34:15;15.70;99.90
8043;DHT22;4064;48.132;11.366;2024-03-02T14:36:41;15.70;99.90
8043;DHT22;4064;48.132;11.366;2024-03-02T14:39:09;15.30;99.90
8043;DHT22;4064;48.132;11.366;2024-03-02T14:41:36;15.20;99.90
8043;DHT22;4064;48.132;11.366;2024-03-02T14:44:02;15.10;99.90
8043;DHT22;4064;48.132;11.366;2024-03-02T14:46:28;15.40;99.90
8043;DHT22;4064;48.132;11.366;2024-03-02T14:48:54;15.80;99.90
8043;DHT22;4064;48.132;11.366;2024-03-02T14:51:19;15.80;99.90
8043;DHT22;4064;48.132;11.366;2024-03-02T14:53:45;15.60;99.90
8043;DHT22;4064;48.132;11.366;2024-03-02T14:56:11;15.50;99.90
8043;DHT22;4064;48.132;11.366;2024-03-02T14:58:38;15.20;99.90
8043;DHT22;4064;48.132;11.366;2024-03-02T15:01:04;15.10;99.90
8043;DHT22;4064;48.132;11.366;2024-03-02T15:03:34;15.50;99.90
8043;DHT22;4064;48.132;11.366;2024-03-02T15:06:01;15.20;99.90
8043;DHT22;4064;48.132;11.366;2024-03-02T15:08:27;15.30;99.90
8043;DHT22;4064;48.132;11.366;2024-03-02T15:10:53;14.90;99.90
8043;DHT22;4064;48.132;11.366;2024-03-02T15:13:21;15.40;99.90
8043;DHT22;4064;48.132;11.366;2024-03-02T15:15:47;15.20;99.90
8043;DHT22;4064;48.132;11.366;2024-03-02T15:18:13;15.20;99.90
8043;DHT22;4064;48.132;11.366;2024-03-02T15:20:39;14.90;99.90
8043;DHT22;4064;48.132;11.366;2024-03-02T15:23:06;15.00;99.90
8043;DHT22;4064;48.132;11.366;2024-03-02T15:25:31;14.70;99.90
8043;DHT22;4064;48.132;11.366;2024-03-02T15:27:57;14.50;99.90
8043;DHT22;4064;48.132;11.366;2024-03-02T15:30:23;14.30;99.90
8043;DHT22;4064;48.132;11.366;2024-03-02T15:32:49;13.90;99.90
8043;DHT22;4064;48.132;11.366;2024-03-02T15:35:14;13.70;99.90
8043;DHT22;4064;48.132;11.366;2024-03-02T15:37:40;13.60;99.90
8043;DHT22;4064;48.132;11.366;2024-03-02T15:40:06;13.30;99.90
8043;DHT22;4064;48.132;11.366;2024-03-02T15:42:34;13.10;99.90
8043;DHT22;4064;48.132;11.366;2024-03-02T15:45:00;12.90;99.90
8043;DHT22;4064;48.132;11.366;2024-03-02T15:47:25;12.90;99.90
8043;DHT22;4064;48.132;11.366;2024-03-02T15:49:52;12.60;99.90
8043;DHT22;4064;48.132;11.366;2024-03-02T15:52:17;12.30;99.90
8043;DHT22;4064;48.132;11.366;2024-03-02T15:54:50;12.20;99.90
8043;DHT22;4064;48.132;11.366;2024-03-02T15:57:16;12.20;99.90
8043;DHT22;4064;48.132;11.366;2024-03-02T15:59:43;12.00;99.90
8043;DHT22;4064;48.132;11.366;2024-03-02T16:02:09;12.00;99.90
8043;DHT22;4064;48.132;11.366;2024-03-02T16:04:35;11.90;99.90